Time;durP1;ratioP1;P1;durP2;ratioP2;P2;SDS_P1;SDS_P2;PMS_P1;PMS_P2;Temp;Humidity;BMP_temperature;BMP_pressure;BME280_temperature;BME280_humidity;BME280_pressure;Samples;Min_cycle;Max_cycle;Signal;HPM_P1;HPM_P2
2022/03/20 00:00:14;;;;;;;115.57;36.57;;;-2.40;99.90;;;;;;8429066;28;20234;-65
2022/03/20 00:04:15;;;;;;;120.23;43.77;;;-2.50;99.90;;;;;;8429471;28;20207;-66
2022/03/20 00:08:17;;;;;;;63.97;26.33;;;-2.30;99.90;;;;;;8452486;28;20294;-67
2022/03/20 00:12:18;;;;;;;39.63;16.67;;;-2.20;99.90;;;;;;8448192;28;20214;-66
2022/03/20 00:16:19;;;;;;;25.07;13.37;;;-2.30;99.90;;;;;;8429745;28;20210;-66
2022/03/20 00:20:19;;;;;;;39.07;17.90;;;-2.40;99.90;;;;;;8423977;28;20460;-65
2022/03/20 00:24:21;;;;;;;28.07;13.90;;;-2.20;99.90;;;;;;8432876;28;20203;-67
2022/03/20 00:28:24;;;;;;;25.60;11.67;;;-2.20;99.90;;;;;;8451686;28;20207;-66
2022/03/20 00:32:25;;;;;;;27.50;13.13;;;-2.00;99.90;;;;;;8424672;28;20203;-66
2022/03/20 00:36:26;;;;;;;22.60;12.40;;;-1.80;99.90;;;;;;8429445;28;20627;-66
2022/03/20 00:40:26;;;;;;;21.70;12.43;;;-1.50;99.90;;;;;;8446253;28;20228;-65
2022/03/20 00:44:27;;;;;;;24.20;12.73;;;-1.20;99.90;;;;;;8437465;28;20224;-66
2022/03/20 00:48:28;;;;;;;24.67;12.47;;;-1.00;99.90;;;;;;8442283;28;20207;-67
2022/03/20 00:52:29;;;;;;;26.47;13.27;;;-1.00;99.90;;;;;;8450458;28;20214;-66
2022/03/20 00:56:29;;;;;;;21.53;12.80;;;-1.20;99.90;;;;;;8441691;28;20234;-66
2022/03/20 01:00:32;;;;;;;22.60;11.10;;;-1.40;99.90;;;;;;8443713;28;20224;-65
2022/03/20 01:04:33;;;;;;;25.50;12.97;;;-1.60;99.90;;;;;;8442199;28;20196;-66
2022/03/20 01:08:35;;;;;;;25.90;13.27;;;-1.50;99.90;;;;;;8448083;28;20279;-65
2022/03/20 01:12:38;;;;;;;38.13;16.20;;;-1.40;99.90;;;;;;8443812;28;20578;-66
2022/03/20 01:16:38;;;;;;;27.63;13.23;;;-1.40;99.90;;;;;;8442091;28;20211;-65
2022/03/20 01:20:39;;;;;;;20.63;11.20;;;-1.50;99.90;;;;;;8441229;28;20240;-65
2022/03/20 01:24:40;;;;;;;24.07;13.30;;;-1.80;99.90;;;;;;8438988;28;20199;-65
2022/03/20 01:28:41;;;;;;;28.17;13.77;;;-1.70;99.90;;;;;;8451286;28;20207;-65
2022/03/20 01:32:42;;;;;;;28.53;12.93;;;-1.40;99.90;;;;;;8452126;28;20207;-70
2022/03/20 01:36:43;;;;;;;25.03;11.53;;;-1.40;99.90;;;;;;8437483;28;20247;-66
2022/03/20 01:40:44;;;;;;;23.67;11.87;;;-1.60;99.90;;;;;;8445647;28;20226;-65
2022/03/20 01:44:44;;;;;;;23.53;11.03;;;-1.90;99.90;;;;;;8446802;28;20285;-67
2022/03/20 01:48:46;;;;;;;25.23;13.03;;;-2.20;99.90;;;;;;8416877;28;20211;-65
2022/03/20 01:52:48;;;;;;;22.17;11.50;;;-2.40;1.00;;;;;;8446960;28;20219;-66
2022/03/20 01:56:49;;;;;;;21.90;12.30;;;-2.40;1.00;;;;;;8453373;28;20261;-66
2022/03/20 02:00:50;;;;;;;27.17;13.33;;;-2.60;1.00;;;;;;8452523;28;20223;-66
2022/03/20 02:04:51;;;;;;;27.57;12.83;;;-2.70;1.00;;;;;;8419619;28;20211;-66
2022/03/20 02:08:53;;;;;;;25.17;12.40;;;-2.80;1.00;;;;;;8445834;28;20207;-68
2022/03/20 02:12:54;;;;;;;24.30;13.27;;;-2.70;90.20;;;;;;8441493;28;20240;-66
2022/03/20 02:16:55;;;;;;;25.33;13.03;;;-2.40;53.40;;;;;;8448148;28;20227;-66
2022/03/20 02:21:02;;;;;;;28.67;13.50;;;-2.20;1.00;;;;;;8423369;28;20322;-65
2022/03/20 02:25:08;;;;;;;27.77;13.47;;;-2.10;1.00;;;;;;8442894;28;20239;-66
2022/03/20 02:29:09;;;;;;;25.83;13.23;;;-2.00;1.00;;;;;;8450760;28;20214;-66
2022/03/20 02:33:10;;;;;;;18.93;11.10;;;-2.30;1.00;;;;;;8432519;28;20238;-66
2022/03/20 02:37:11;;;;;;;26.33;13.87;;;-2.60;1.00;;;;;;8429427;28;20548;-65
2022/03/20 02:41:15;;;;;;;26.93;13.87;;;-2.80;33.30;;;;;;8453999;28;20219;-66
2022/03/20 02:45:20;;;;;;;27.67;13.63;;;-2.60;91.90;;;;;;8434868;28;20215;-66
2022/03/20 02:49:20;;;;;;;27.07;13.17;;;-2.30;1.00;;;;;;8429395;28;20384;-66
2022/03/20 02:53:21;;;;;;;22.87;12.67;;;-2.10;1.00;;;;;;8444278;28;20287;-66
2022/03/20 02:57:22;;;;;;;23.33;13.53;;;-1.90;1.00;;;;;;8450836;28;20196;-66
2022/03/20 03:01:23;;;;;;;24.57;12.90;;;-1.90;1.00;;;;;;8440808;28;20226;-66
2022/03/20 03:05:26;;;;;;;22.57;13.00;;;-2.00;1.00;;;;;;8449843;28;20207;-66
2022/03/20 03:13:47;;;;;;;27.47;13.10;;;-1.90;1.00;;;;;;8438969;28;20299;-65
2022/03/20 03:17:49;;;;;;;23.67;12.27;;;-1.90;1.00;;;;;;8435786;28;20226;-66
2022/03/20 03:21:50;;;;;;;24.20;13.07;;;-1.90;1.00;;;;;;8442526;28;20303;-66
2022/03/20 03:25:51;;;;;;;27.67;13.87;;;-1.90;99.90;;;;;;8418144;28;20208;-66
2022/03/20 03:29:52;;;;;;;28.30;12.80;;;-1.80;1.00;;;;;;8444748;28;20211;-66
2022/03/20 03:38:19;;;;;;;28.67;13.50;;;-1.60;99.90;;;;;;8437121;28;20636;-66
2022/03/20 03:42:19;;;;;;;24.43;12.97;;;-1.50;99.90;;;;;;8441699;28;20207;-66
2022/03/20 03:46:20;;;;;;;26.30;13.17;;;-1.50;99.90;;;;;;8443777;28;20215;-65
2022/03/20 03:50:22;;;;;;;25.53;12.87;;;-1.50;99.90;;;;;;8422544;28;20297;-67
2022/03/20 03:54:22;;;;;;;23.80;13.30;;;-1.40;99.90;;;;;;8431360;28;20225;-66
2022/03/20 03:58:23;;;;;;;23.70;13.17;;;-1.50;99.90;;;;;;8447177;28;20251;-66
2022/03/20 04:02:24;;;;;;;25.60;12.77;;;-1.50;99.90;;;;;;8433198;28;20574;-66
2022/03/20 04:06:25;;;;;;;25.57;13.10;;;-1.50;99.90;;;;;;8439345;28;20263;-66
2022/03/20 04:10:26;;;;;;;25.73;14.70;;;-1.50;99.90;;;;;;8440524;28;20328;-66
2022/03/20 04:14:27;;;;;;;26.87;13.33;;;-1.50;99.90;;;;;;8425379;28;20210;-66
2022/03/20 04:18:27;;;;;;;27.37;14.50;;;-1.40;99.90;;;;;;8445804;28;20294;-66
2022/03/20 04:22:29;;;;;;;28.23;14.20;;;-1.40;99.90;;;;;;8435374;28;20214;-66
2022/03/20 04:26:32;;;;;;;26.60;13.53;;;-1.50;99.90;;;;;;8442620;28;20199;-65
2022/03/20 04:30:34;;;;;;;23.33;13.37;;;-1.60;99.90;;;;;;8429548;28;20207;-65
2022/03/20 04:34:35;;;;;;;26.87;12.83;;;-1.60;99.90;;;;;;8448536;28;20199;-65
2022/03/20 04:38:37;;;;;;;22.93;12.90;;;-1.60;99.90;;;;;;8450815;28;20236;-66
2022/03/20 04:42:38;;;;;;;24.63;12.63;;;-1.60;99.90;;;;;;8425394;28;20585;-65
2022/03/20 04:46:39;;;;;;;27.03;13.80;;;-1.60;99.90;;;;;;8438294;28;20204;-65
2022/03/20 04:59:19;;;;;;;26.33;13.10;;;-1.50;99.90;;;;;;8452040;28;20269;-65
2022/03/20 05:03:21;;;;;;;29.00;13.83;;;-1.50;99.90;;;;;;8428833;28;20209;-65
2022/03/20 05:07:21;;;;;;;23.70;12.80;;;-1.50;99.90;;;;;;8435918;28;20200;-64
2022/03/20 05:15:42;;;;;;;28.50;14.10;;;-1.40;99.90;;;;;;8436400;28;20210;-65
2022/03/20 05:19:42;;;;;;;25.17;12.97;;;-1.40;99.90;;;;;;8436060;28;20211;-66
2022/03/20 05:23:43;;;;;;;24.23;13.43;;;-1.40;99.90;;;;;;8439386;28;20203;-65
2022/03/20 05:27:44;;;;;;;27.23;12.97;;;-1.30;99.90;;;;;;8437086;28;20195;-65
2022/03/20 05:31:46;;;;;;;25.67;12.93;;;-1.30;99.90;;;;;;8424038;28;20203;-65
2022/03/20 05:35:47;;;;;;;26.60;13.07;;;-1.30;99.90;;;;;;8437701;28;20203;-65
2022/03/20 05:39:48;;;;;;;24.17;13.10;;;-1.20;99.90;;;;;;8437258;28;20215;-65
2022/03/20 05:43:52;;;;;;;24.57;13.37;;;-1.10;99.90;;;;;;8447638;28;20200;-65
2022/03/20 05:47:53;;;;;;;24.13;13.67;;;-1.00;99.90;;;;;;8423862;28;20215;-65
2022/03/20 05:51:54;;;;;;;27.60;13.97;;;-0.90;99.90;;;;;;8434563;28;20331;-65
2022/03/20 06:00:17;;;;;;;28.80;14.53;;;-0.70;99.90;;;;;;8448519;28;20283;-66
2022/03/20 06:04:19;;;;;;;25.33;13.30;;;-0.60;99.90;;;;;;8418646;28;20198;-64
2022/03/20 06:08:21;;;;;;;26.93;14.93;;;-0.50;99.90;;;;;;8431970;28;20252;-66
2022/03/20 06:12:21;;;;;;;23.63;12.73;;;-0.30;99.90;;;;;;8433250;28;20195;-67
2022/03/20 06:16:23;;;;;;;26.83;14.73;;;-0.20;99.90;;;;;;8424107;28;20299;-65
2022/03/20 06:20:25;;;;;;;30.83;16.20;;;0.00;81.80;;;;;;8445072;28;20302;-66
2022/03/20 06:24:26;;;;;;;32.53;17.07;;;0.10;47.70;;;;;;8429808;28;20192;-66
2022/03/20 06:28:27;;;;;;;26.83;14.40;;;0.20;29.20;;;;;;8453736;28;20454;-66
2022/03/20 06:32:28;;;;;;;31.97;17.80;;;0.30;1.00;;;;;;8445286;28;20195;-66
2022/03/20 06:36:30;;;;;;;37.43;17.73;;;0.50;1.00;;;;;;8451487;28;20200;-64
2022/03/20 06:40:32;;;;;;;25.23;14.93;;;0.60;1.00;;;;;;8432912;28;20253;-64
2022/03/20 06:44:32;;;;;;;26.97;14.57;;;0.70;1.00;;;;;;8437502;28;20220;-65
2022/03/20 06:48:34;;;;;;;32.10;19.50;;;0.80;1.00;;;;;;8439366;28;20217;-67
2022/03/20 06:52:35;;;;;;;28.57;15.00;;;1.00;1.00;;;;;;8427376;28;20292;-66
2022/03/20 06:56:36;;;;;;;28.53;15.77;;;1.10;1.00;;;;;;8428797;28;20204;-66
2022/03/20 07:00:38;;;;;;;30.07;16.47;;;1.20;1.00;;;;;;8438250;28;20255;-65
2022/03/20 07:04:39;;;;;;;29.07;15.37;;;1.40;1.00;;;;;;8450036;28;20205;-66
2022/03/20 07:08:40;;;;;;;30.70;17.80;;;1.50;1.00;;;;;;8452375;28;20294;-64
2022/03/20 07:12:41;;;;;;;29.53;15.20;;;1.70;1.00;;;;;;8452738;28;20200;-64
2022/03/20 07:16:43;;;;;;;28.93;14.27;;;1.80;1.00;;;;;;8452434;28;20212;-65
2022/03/20 07:20:46;;;;;;;30.20;15.80;;;2.00;1.00;;;;;;8431874;28;20226;-64
2022/03/20 07:24:46;;;;;;;28.67;16.97;;;2.20;1.00;;;;;;8447850;28;20225;-64
2022/03/20 07:33:07;;;;;;;32.90;16.50;;;2.30;1.00;;;;;;8451632;28;20203;-65
2022/03/20 07:37:08;;;;;;;30.50;16.57;;;2.50;1.00;;;;;;8441945;28;20204;-64
2022/03/20 07:41:08;;;;;;;34.37;18.23;;;2.70;1.00;;;;;;8436036;28;20247;-67
2022/03/20 07:45:10;;;;;;;30.13;17.03;;;2.80;1.00;;;;;;8438739;28;20262;-68
2022/03/20 07:49:11;;;;;;;30.93;18.07;;;3.00;99.90;;;;;;8412388;28;20207;-66
2022/03/20 07:53:11;;;;;;;29.20;18.20;;;3.10;99.90;;;;;;8446896;28;20195;-68
2022/03/20 07:57:13;;;;;;;36.43;20.67;;;3.30;99.90;;;;;;8447679;28;20206;-64
2022/03/20 08:01:14;;;;;;;35.87;21.10;;;3.40;99.90;;;;;;8447841;28;20483;-64
2022/03/20 08:05:17;;;;;;;33.40;18.33;;;3.50;99.90;;;;;;8450642;28;20258;-64
2022/03/20 08:09:18;;;;;;;45.63;23.90;;;3.60;99.90;;;;;;8438550;28;20229;-64
2022/03/20 08:13:19;;;;;;;37.07;19.10;;;3.70;99.90;;;;;;8435456;28;20208;-66
2022/03/20 08:17:19;;;;;;;41.47;22.83;;;3.90;99.90;;;;;;8424538;28;20310;-64
2022/03/20 08:21:20;;;;;;;34.23;20.10;;;4.20;99.90;;;;;;8431280;28;20219;-64
2022/03/20 08:25:22;;;;;;;39.63;20.23;;;4.30;99.90;;;;;;8427185;28;20213;-65
2022/03/20 08:29:23;;;;;;;35.80;19.10;;;4.50;99.90;;;;;;8431294;28;20197;-63
2022/03/20 08:33:23;;;;;;;75.10;32.80;;;4.60;99.90;;;;;;8450268;28;20201;-65
2022/03/20 08:37:25;;;;;;;31.23;19.57;;;4.80;99.90;;;;;;8445327;28;20208;-65
2022/03/20 08:41:26;;;;;;;38.37;22.33;;;4.90;99.90;;;;;;8419056;28;20271;-66
2022/03/20 08:45:29;;;;;;;36.43;21.90;;;5.00;99.90;;;;;;8414894;28;20210;-64
2022/03/20 08:49:30;;;;;;;35.60;20.20;;;5.10;99.90;;;;;;8416214;28;20285;-66
2022/03/20 08:53:32;;;;;;;29.57;18.37;;;5.30;99.90;;;;;;8424712;28;20249;-67
2022/03/20 08:57:33;;;;;;;27.33;16.90;;;5.50;99.90;;;;;;8423247;28;20210;-68
2022/03/20 09:01:34;;;;;;;33.43;18.10;;;5.80;99.90;;;;;;8433456;28;20227;-65
2022/03/20 09:05:36;;;;;;;25.97;17.53;;;6.00;99.90;;;;;;8402886;28;20218;-65
2022/03/20 09:09:37;;;;;;;29.43;17.20;;;6.10;99.90;;;;;;8423902;28;20204;-64
2022/03/20 09:13:38;;;;;;;31.37;18.73;;;6.30;99.90;;;;;;8414791;28;20265;-66
2022/03/20 09:21:59;;;;;;;35.17;19.87;;;6.60;99.90;;;;;;8441249;28;20282;-64
2022/03/20 09:26:00;;;;;;;29.13;18.17;;;6.70;99.90;;;;;;8427576;28;20497;-63
2022/03/20 09:30:03;;;;;;;27.77;17.43;;;6.80;99.90;;;;;;8414456;28;20254;-65
2022/03/20 09:34:04;;;;;;;30.17;18.53;;;7.00;99.90;;;;;;8416624;28;20210;-63
2022/03/20 09:38:07;;;;;;;28.77;18.73;;;7.10;99.90;;;;;;8434078;28;21036;-64
2022/03/20 09:42:08;;;;;;;31.57;20.10;;;7.30;99.90;;;;;;8425778;28;20224;-64
2022/03/20 09:46:09;;;;;;;25.47;16.37;;;7.50;99.90;;;;;;8437723;28;20202;-63
2022/03/20 09:50:11;;;;;;;26.37;16.40;;;7.60;99.90;;;;;;8425355;28;20594;-64
2022/03/20 09:54:13;;;;;;;28.73;16.80;;;7.70;99.90;;;;;;8428067;28;20254;-66
2022/03/20 09:58:14;;;;;;;25.77;16.43;;;7.80;99.90;;;;;;8434498;28;20664;-67
2022/03/20 10:02:15;;;;;;;27.67;16.97;;;7.90;99.90;;;;;;8414963;28;20220;-65
2022/03/20 10:06:19;;;;;;;29.57;17.50;;;8.10;99.90;;;;;;8417145;28;20204;-65
2022/03/20 10:10:28;;;;;;;31.57;19.27;;;8.30;99.90;;;;;;8425388;28;20304;-67
2022/03/20 10:14:29;;;;;;;27.07;19.00;;;8.40;99.90;;;;;;8442741;28;20349;-65
2022/03/20 10:18:33;;;;;;;33.77;18.00;;;8.50;99.90;;;;;;8439368;28;20208;-68
2022/03/20 10:22:33;;;;;;;25.60;17.27;;;8.60;99.90;;;;;;8422412;28;20323;-65
2022/03/20 10:26:34;;;;;;;29.90;17.70;;;8.70;99.90;;;;;;8402506;28;20204;-64
2022/03/20 10:30:36;;;;;;;31.17;19.50;;;8.90;99.90;;;;;;8423450;28;20499;-65
2022/03/20 10:34:50;;;;;;;27.90;17.50;;;9.00;99.90;;;;;;8413496;28;20220;-65
2022/03/20 10:38:51;;;;;;;37.53;20.97;;;9.20;99.90;;;;;;8402964;28;20227;-68
2022/03/20 10:43:14;;;;;;;26.77;18.07;;;9.30;99.20;;;;;;8407197;28;20216;-64
2022/03/20 10:47:19;;;;;;;21.23;15.17;;;9.50;92.80;;;;;;8417164;28;20231;-65
2022/03/20 10:51:40;;;;;;;26.43;15.67;;;9.60;84.70;;;;;;8437982;28;20270;-68
2022/03/20 10:55:40;;;;;;;24.33;15.33;;;9.70;80.70;;;;;;8411997;28;20269;-65
2022/03/20 10:59:43;;;;;;;19.77;12.93;;;9.80;73.80;;;;;;8438195;28;20220;-67
2022/03/20 11:03:44;;;;;;;20.80;13.10;;;9.80;62.20;;;;;;8414780;28;20223;-64
2022/03/20 11:07:45;;;;;;;21.43;14.43;;;9.80;54.30;;;;;;8425557;28;20216;-65
2022/03/20 11:11:51;;;;;;;21.17;14.03;;;9.90;57.60;;;;;;8422867;28;20208;-67
2022/03/20 11:15:56;;;;;;;21.63;13.73;;;10.00;48.50;;;;;;8434671;28;20247;-65
2022/03/20 11:19:59;;;;;;;18.33;13.50;;;10.10;50.60;;;;;;8412862;28;20220;-67
2022/03/20 11:24:01;;;;;;;23.17;14.60;;;10.20;45.00;;;;;;8424197;28;20222;-65
2022/03/20 11:28:05;;;;;;;29.53;17.07;;;10.40;46.70;;;;;;8407155;28;20257;-68
2022/03/20 11:32:08;;;;;;;22.27;14.30;;;10.50;43.70;;;;;;8416038;28;20210;-66
2022/03/20 11:36:09;;;;;;;18.27;12.27;;;10.60;40.10;;;;;;8437086;28;20212;-65
2022/03/20 11:40:13;;;;;;;17.27;11.33;;;10.70;31.20;;;;;;8412544;28;20222;-66
2022/03/20 11:44:21;;;;;;;14.67;10.77;;;10.80;25.00;;;;;;8422155;28;20504;-66
2022/03/20 11:48:23;;;;;;;17.40;11.63;;;10.80;19.60;;;;;;8425258;28;20202;-65
2022/03/20 11:53:01;;;;;;;33.90;20.37;;;10.80;16.10;;;;;;8403814;28;20307;-67
2022/03/20 11:57:02;;;;;;;20.43;12.07;;;10.90;15.40;;;;;;8406668;28;20276;-67
2022/03/20 12:01:09;;;;;;;19.30;11.90;;;11.00;11.70;;;;;;8435057;28;20221;-66
2022/03/20 12:05:21;;;;;;;19.80;13.40;;;11.00;8.90;;;;;;8433629;28;20223;-65
2022/03/20 12:09:38;;;;;;;17.57;11.33;;;11.00;6.10;;;;;;8415707;28;20206;-65
2022/03/20 12:14:24;;;;;;;15.57;11.17;;;11.00;4.60;;;;;;8399576;28;20210;-67
2022/03/20 12:18:25;;;;;;;13.87;10.00;;;10.90;2.20;;;;;;8407535;28;20300;-65
2022/03/20 12:22:26;;;;;;;22.67;12.53;;;11.00;1.90;;;;;;8402025;28;20225;-65
2022/03/20 12:26:31;;;;;;;15.57;10.20;;;11.10;2.10;;;;;;8400679;28;20203;-67
2022/03/20 12:30:33;;;;;;;20.00;13.40;;;11.10;1.00;;;;;;8426459;28;20222;-67
2022/03/20 12:34:34;;;;;;;42.07;22.40;;;11.20;1.00;;;;;;8445964;28;20211;-65
2022/03/20 12:38:40;;;;;;;35.53;19.70;;;11.30;1.00;;;;;;8418832;28;20315;-64
2022/03/20 12:43:15;;;;;;;62.93;33.57;;;11.30;1.00;;;;;;8411860;28;20265;-68
2022/03/20 12:47:20;;;;;;;25.80;15.03;;;11.30;1.00;;;;;;8405206;28;20249;-65
2022/03/20 12:51:32;;;;;;;18.07;10.77;;;11.30;1.00;;;;;;8437678;28;20209;-66
2022/03/20 12:55:34;;;;;;;18.70;12.43;;;11.40;1.00;;;;;;8416525;28;20211;-66
2022/03/20 12:59:35;;;;;;;40.07;22.30;;;11.50;1.00;;;;;;8413509;28;20235;-65
2022/03/20 13:03:36;;;;;;;31.17;16.40;;;11.40;1.00;;;;;;8419527;28;20252;-64
2022/03/20 13:07:39;;;;;;;16.30;11.30;;;11.40;1.00;;;;;;8402974;28;20248;-66
2022/03/20 13:11:52;;;;;;;17.67;10.57;;;11.40;1.00;;;;;;8425890;28;20197;-65
2022/03/20 13:15:53;;;;;;;12.63;9.67;;;11.40;1.00;;;;;;8408175;28;20243;-65
2022/03/20 13:19:54;;;;;;;14.90;10.70;;;11.40;1.00;;;;;;8423842;28;20244;-65
2022/03/20 13:23:56;;;;;;;17.90;10.97;;;11.40;1.00;;;;;;8443116;28;20197;-65
2022/03/20 13:27:57;;;;;;;18.80;10.47;;;11.40;1.00;;;;;;8407912;28;20203;-66
2022/03/20 13:32:10;;;;;;;18.00;11.23;;;11.40;1.00;;;;;;8423355;28;20269;-68
2022/03/20 13:36:11;;;;;;;17.47;11.47;;;11.30;1.00;;;;;;8436629;28;20221;-65
2022/03/20 13:40:13;;;;;;;18.03;11.90;;;11.30;1.00;;;;;;8404029;28;20226;-66
2022/03/20 13:44:15;;;;;;;17.80;11.87;;;11.20;1.00;;;;;;8433690;28;20211;-67
2022/03/20 13:48:18;;;;;;;16.30;11.57;;;11.20;1.00;;;;;;8411944;28;20206;-67
2022/03/20 13:52:29;;;;;;;17.33;11.13;;;11.20;1.00;;;;;;8417433;28;20219;-66
2022/03/20 13:56:30;;;;;;;15.73;11.13;;;11.30;1.00;;;;;;8448834;28;20292;-66
2022/03/20 14:00:39;;;;;;;17.43;11.30;;;11.30;1.00;;;;;;8408566;28;20235;-65
2022/03/20 14:04:40;;;;;;;20.73;13.57;;;11.20;1.00;;;;;;8425057;28;20381;-66
2022/03/20 14:08:54;;;;;;;17.40;11.70;;;11.30;1.00;;;;;;8411523;28;20217;-64
2022/03/20 14:13:18;;;;;;;17.43;11.93;;;11.20;1.00;;;;;;8411222;28;20262;-68
2022/03/20 14:17:23;;;;;;;21.70;13.17;;;11.20;1.00;;;;;;8430093;28;20216;-65
2022/03/20 14:21:30;;;;;;;22.33;13.57;;;11.20;1.00;;;;;;8444984;28;20315;-67
2022/03/20 14:25:44;;;;;;;18.50;12.63;;;11.20;1.00;;;;;;8435024;28;20332;-64
2022/03/20 14:43:10;;;;;;;19.13;11.50;;;11.10;1.00;;;;;;8432319;28;20231;-65
2022/03/20 14:47:11;;;;;;;15.73;10.97;;;11.10;1.00;;;;;;8410401;28;20197;-67
2022/03/20 14:51:12;;;;;;;15.37;11.63;;;11.10;1.00;;;;;;8416542;28;20241;-65
2022/03/20 14:55:13;;;;;;;14.60;10.87;;;11.10;1.00;;;;;;8444881;28;20204;-65
2022/03/20 14:59:14;;;;;;;14.73;9.77;;;11.10;1.00;;;;;;8415616;28;20293;-64
2022/03/20 15:03:15;;;;;;;13.37;9.93;;;11.10;1.00;;;;;;8414804;28;20202;-65
2022/03/20 15:07:17;;;;;;;13.30;9.50;;;11.00;1.00;;;;;;8416780;28;20208;-67
2022/03/20 15:11:24;;;;;;;13.33;9.13;;;11.00;1.00;;;;;;8413558;28;20235;-65
2022/03/20 15:15:25;;;;;;;13.87;10.07;;;11.00;1.00;;;;;;8442602;28;20211;-66
2022/03/20 15:19:26;;;;;;;10.77;8.53;;;11.00;1.00;;;;;;8420688;28;20219;-66
2022/03/20 15:23:27;;;;;;;10.93;8.47;;;10.90;1.00;;;;;;8419192;28;20196;-68
2022/03/20 15:27:28;;;;;;;13.43;9.43;;;10.80;1.00;;;;;;8431078;28;20225;-65
2022/03/20 15:31:31;;;;;;;12.90;9.10;;;10.80;1.00;;;;;;8415902;28;20193;-65
2022/03/20 15:35:32;;;;;;;16.20;9.73;;;10.70;1.00;;;;;;8409588;28;20222;-65
2022/03/20 15:39:33;;;;;;;14.17;10.00;;;10.70;1.00;;;;;;8415588;28;20224;-67
2022/03/20 15:43:34;;;;;;;13.70;9.17;;;10.60;1.00;;;;;;8410186;28;20216;-65
2022/03/20 15:47:35;;;;;;;14.90;9.80;;;10.50;1.00;;;;;;8430167;28;20207;-67
2022/03/20 15:51:40;;;;;;;20.43;13.37;;;10.40;1.00;;;;;;8416255;28;20201;-65
2022/03/20 15:55:41;;;;;;;18.10;11.97;;;10.30;1.00;;;;;;8434972;28;20201;-66
2022/03/20 15:59:42;;;;;;;32.67;21.30;;;10.20;1.00;;;;;;8414339;28;20224;-68
2022/03/20 16:03:42;;;;;;;16.57;8.77;;;10.20;1.00;;;;;;8425389;28;20204;-65
2022/03/20 16:07:43;;;;;;;11.23;8.10;;;10.10;1.00;;;;;;8407683;28;20212;-65
2022/03/20 16:11:44;;;;;;;12.10;8.43;;;10.00;1.00;;;;;;8418234;28;20212;-66
2022/03/20 16:15:45;;;;;;;13.13;8.50;;;9.80;1.00;;;;;;8418874;28;20218;-66
2022/03/20 16:19:46;;;;;;;10.33;7.77;;;9.70;1.00;;;;;;8436987;28;20220;-67
2022/03/20 16:32:26;;;;;;;12.73;8.20;;;9.30;3.30;;;;;;8433014;28;20269;-66
2022/03/20 16:36:27;;;;;;;13.87;8.30;;;9.10;5.20;;;;;;8418134;28;20203;-67
2022/03/20 16:40:27;;;;;;;16.27;8.17;;;9.00;7.10;;;;;;8410160;28;20227;-65
2022/03/20 16:44:33;;;;;;;11.97;8.13;;;8.80;8.50;;;;;;8442265;28;20203;-69
2022/03/20 16:48:36;;;;;;;10.70;7.23;;;8.60;10.40;;;;;;8419769;28;20245;-65
2022/03/20 16:52:37;;;;;;;12.00;8.13;;;8.50;11.30;;;;;;8433606;28;20207;-66
2022/03/20 16:56:38;;;;;;;15.60;9.33;;;8.40;13.50;;;;;;8444352;28;20222;-67
2022/03/20 17:00:43;;;;;;;11.60;7.97;;;8.20;15.60;;;;;;8412841;28;20231;-68
2022/03/20 17:04:44;;;;;;;12.17;8.60;;;8.00;17.90;;;;;;8408771;28;20311;-67
2022/03/20 17:08:45;;;;;;;12.00;7.90;;;7.80;21.10;;;;;;8401138;28;20216;-67
2022/03/20 17:12:46;;;;;;;15.73;10.93;;;7.60;23.50;;;;;;8429153;28;20207;-66
2022/03/20 17:16:46;;;;;;;10.50;8.67;;;7.50;26.90;;;;;;8436199;28;20220;-67
2022/03/20 17:20:48;;;;;;;16.13;8.80;;;7.40;31.60;;;;;;8405579;28;20311;-68
2022/03/20 17:24:49;;;;;;;16.43;9.60;;;7.30;35.40;;;;;;8403244;28;20195;-67
2022/03/20 17:28:50;;;;;;;13.77;9.90;;;7.20;41.70;;;;;;8435851;28;20211;-65
2022/03/20 17:32:51;;;;;;;15.53;9.90;;;7.00;48.00;;;;;;8419221;28;20260;-69
2022/03/20 17:36:52;;;;;;;19.57;10.90;;;6.90;52.00;;;;;;8440153;28;20216;-68
2022/03/20 17:40:53;;;;;;;23.17;10.13;;;6.80;58.10;;;;;;8421294;28;20220;-68
2022/03/20 17:44:56;;;;;;;18.23;9.47;;;6.70;65.50;;;;;;8406848;28;20226;-68
2022/03/20 17:48:57;;;;;;;15.50;9.93;;;6.60;73.50;;;;;;8422517;28;20204;-69
2022/03/20 17:52:58;;;;;;;14.83;10.03;;;6.40;83.80;;;;;;8425619;28;20268;-68
2022/03/20 17:57:00;;;;;;;18.50;10.60;;;6.30;90.60;;;;;;8405929;28;20297;-69
2022/03/20 18:01:01;;;;;;;19.60;11.50;;;6.10;95.30;;;;;;8412708;28;20226;-70
2022/03/20 18:09:21;;;;;;;20.17;10.80;;;5.90;99.90;;;;;;8435221;28;20337;-68
2022/03/20 18:13:23;;;;;;;21.47;12.73;;;5.80;99.90;;;;;;8427119;28;20200;-69
2022/03/20 18:17:29;;;;;;;22.87;13.83;;;5.60;99.90;;;;;;8432885;28;20369;-68
2022/03/20 18:21:30;;;;;;;18.13;11.60;;;5.50;99.90;;;;;;8431290;28;20218;-69
2022/03/20 18:25:33;;;;;;;17.37;10.73;;;5.40;99.90;;;;;;8421510;28;20208;-69
2022/03/20 18:29:34;;;;;;;16.80;10.83;;;5.30;99.90;;;;;;8415587;28;20208;-67
2022/03/20 18:33:35;;;;;;;17.07;10.90;;;5.20;99.90;;;;;;8411249;28;20209;-68
2022/03/20 18:37:36;;;;;;;14.33;9.07;;;5.10;99.90;;;;;;8401322;28;20231;-68
2022/03/20 18:41:37;;;;;;;13.73;8.83;;;4.90;99.90;;;;;;8415493;28;20250;-68
2022/03/20 18:45:38;;;;;;;14.70;9.70;;;4.70;99.90;;;;;;8412039;28;20206;-66
2022/03/20 18:49:40;;;;;;;16.07;9.13;;;4.50;99.90;;;;;;8411178;28;20268;-66
2022/03/20 18:53:45;;;;;;;16.73;8.73;;;4.30;99.90;;;;;;8409813;28;20230;-68
2022/03/20 18:57:46;;;;;;;14.83;8.77;;;4.10;99.90;;;;;;8430615;28;20206;-69
2022/03/20 19:01:47;;;;;;;12.80;9.00;;;3.80;99.90;;;;;;8409879;28;20323;-68
2022/03/20 19:05:48;;;;;;;15.23;8.27;;;3.60;99.90;;;;;;8410271;28;20212;-69
2022/03/20 19:09:50;;;;;;;15.03;9.67;;;3.50;99.90;;;;;;8419723;28;20284;-68
2022/03/20 19:13:55;;;;;;;18.23;9.83;;;3.20;99.90;;;;;;8434949;28;20210;-67
2022/03/20 19:17:56;;;;;;;18.33;9.63;;;2.90;99.90;;;;;;8426340;28;20197;-67
2022/03/20 19:21:57;;;;;;;22.27;11.87;;;2.70;99.90;;;;;;8415588;28;20228;-66
2022/03/20 19:25:58;;;;;;;41.63;17.43;;;2.50;99.90;;;;;;8407321;28;20200;-66
2022/03/20 19:30:00;;;;;;;30.27;14.77;;;2.40;99.90;;;;;;8423869;28;20212;-66
2022/03/20 19:42:41;;;;;;;23.83;12.43;;;1.70;1.00;;;;;;8431774;28;20248;-67
2022/03/20 19:46:42;;;;;;;23.07;12.57;;;1.60;1.00;;;;;;8423083;28;20207;-68
2022/03/20 19:50:43;;;;;;;30.70;14.10;;;1.40;1.00;;;;;;8412457;28;20218;-67
2022/03/20 19:54:44;;;;;;;28.63;13.73;;;1.40;1.00;;;;;;8432532;28;20208;-68
2022/03/20 19:58:46;;;;;;;23.57;12.63;;;1.30;1.00;;;;;;8419401;28;20748;-68
2022/03/20 20:02:47;;;;;;;21.57;12.50;;;1.10;1.00;;;;;;8433796;28;20213;-69
2022/03/20 20:06:48;;;;;;;20.50;11.43;;;1.00;1.00;;;;;;8432593;28;20295;-69
2022/03/20 20:10:49;;;;;;;24.73;13.73;;;0.80;22.40;;;;;;8434480;28;20216;-67
2022/03/20 20:14:51;;;;;;;33.60;16.50;;;0.60;99.90;;;;;;8434822;28;20200;-67
2022/03/20 20:18:52;;;;;;;26.30;14.40;;;0.60;99.90;;;;;;8407982;28;20234;-69
2022/03/20 20:22:53;;;;;;;23.10;12.97;;;0.40;99.90;;;;;;8400080;28;20222;-66
2022/03/20 20:26:55;;;;;;;25.93;13.70;;;0.20;99.90;;;;;;8420509;28;20276;-63
2022/03/20 20:30:56;;;;;;;26.63;13.33;;;0.10;99.90;;;;;;8409305;28;20243;-65
2022/03/20 20:34:57;;;;;;;23.40;11.93;;;0.10;99.90;;;;;;8409695;28;20213;-67
2022/03/20 20:38:59;;;;;;;20.80;11.30;;;-0.10;99.90;;;;;;8400202;28;20315;-66
2022/03/20 20:43:00;;;;;;;21.67;11.67;;;-0.30;99.90;;;;;;8438083;28;20227;-66
2022/03/20 20:47:01;;;;;;;20.57;10.63;;;-0.60;99.90;;;;;;8414877;28;20221;-64
2022/03/20 20:51:03;;;;;;;22.87;11.87;;;-0.70;99.90;;;;;;8406687;28;20217;-67
2022/03/20 20:55:07;;;;;;;21.33;11.50;;;-0.90;1.00;;;;;;8412192;28;20314;-66
2022/03/20 20:59:09;;;;;;;23.73;10.97;;;-1.10;1.00;;;;;;8403589;28;20219;-67
2022/03/20 21:03:10;;;;;;;22.70;11.57;;;-1.20;1.00;;;;;;8434879;28;20203;-67
2022/03/20 21:11:30;;;;;;;25.67;11.90;;;-1.50;1.00;;;;;;8425419;28;20233;-65
2022/03/20 21:15:31;;;;;;;24.70;13.23;;;-1.50;99.90;;;;;;8420270;28;20211;-65
2022/03/20 21:19:32;;;;;;;34.90;16.83;;;-1.60;99.90;;;;;;8429618;28;20223;-66
2022/03/20 21:23:34;;;;;;;32.93;15.07;;;-1.60;99.90;;;;;;8431735;28;20211;-65
2022/03/20 21:27:35;;;;;;;31.70;15.00;;;-1.60;99.90;;;;;;8416199;28;20212;-66
2022/03/20 21:31:36;;;;;;;25.27;13.50;;;-1.50;99.90;;;;;;8414746;28;20212;-66
2022/03/20 21:35:38;;;;;;;24.93;13.57;;;-1.60;99.90;;;;;;8417803;28;20212;-65
2022/03/20 21:39:39;;;;;;;19.27;10.63;;;-1.70;99.90;;;;;;8416335;28;20231;-66
2022/03/20 21:43:40;;;;;;;26.07;12.93;;;-1.90;99.90;;;;;;8420337;28;20634;-65
2022/03/20 21:47:41;;;;;;;31.33;14.50;;;-2.00;99.90;;;;;;8422652;28;20211;-65
2022/03/20 21:51:42;;;;;;;27.83;14.23;;;-2.10;99.90;;;;;;8411859;28;20238;-64
2022/03/20 21:55:49;;;;;;;25.40;13.47;;;-2.10;1.00;;;;;;8410909;28;20207;-65